Time;durP1;ratioP1;P1;durP2;ratioP2;P2;SDS_P1;SDS_P2;PMS_P1;PMS_P2;Temp;Humidity;BMP_temperature;BMP_pressure;BME280_temperature;BME280_humidity;BME280_pressure;Samples;Min_cycle;Max_cycle;Signal;HPM_P1;HPM_P2
2024/03/13 00:00:16;;;;;;;;;;;8.40;77.50;;;;;;5071608;28;19956;-71
2024/03/13 00:02:42;;;;;;;;;;;8.40;77.70;;;;;;5071056;28;19939;-74
2024/03/13 00:05:09;;;;;;;;;;;8.40;77.10;;;;;;5073187;28;20385;-74
2024/03/13 00:07:54;;;;;;;;;;;8.40;77.60;;;;;;5072007;28;19923;-74
2024/03/13 00:10:20;;;;;;;;;;;8.30;77.60;;;;;;5072783;28;19990;-71
2024/03/13 00:12:46;;;;;;;;;;;8.40;77.50;;;;;;5071995;28;19920;-72
2024/03/13 00:15:12;;;;;;;;;;;8.30;77.60;;;;;;5072024;28;20351;-74
2024/03/13 00:17:38;;;;;;;;;;;8.40;77.60;;;;;;5073305;28;20007;-73
2024/03/13 00:20:04;;;;;;;;;;;8.30;77.90;;;;;;5054516;28;19989;-74
2024/03/13 00:22:30;;;;;;;;;;;8.30;77.30;;;;;;5072835;28;19924;-70
2024/03/13 00:24:57;;;;;;;;;;;8.30;77.90;;;;;;5073058;28;19936;-70
2024/03/13 00:27:23;;;;;;;;;;;8.20;77.80;;;;;;5072882;28;19917;-72
2024/03/13 00:29:49;;;;;;;;;;;8.20;77.70;;;;;;5071761;28;19960;-70
2024/03/13 00:32:18;;;;;;;;;;;8.20;77.80;;;;;;5070865;28;19974;-74
2024/03/13 00:37:29;;;;;;;;;;;8.20;77.60;;;;;;5072708;28;20008;-70
2024/03/13 00:39:56;;;;;;;;;;;8.20;78.00;;;;;;5072920;28;20397;-74
2024/03/13 00:42:22;;;;;;;;;;;8.10;78.20;;;;;;5070872;28;20007;-70
2024/03/13 00:44:48;;;;;;;;;;;8.00;78.40;;;;;;5071306;28;19927;-74
2024/03/13 00:49:59;;;;;;;;;;;7.90;78.20;;;;;;5072660;28;20343;-71
2024/03/13 00:52:27;;;;;;;;;;;7.80;78.20;;;;;;5071888;28;19924;-74
2024/03/13 00:54:53;;;;;;;;;;;7.80;78.50;;;;;;5072438;28;19948;-74
2024/03/13 00:57:19;;;;;;;;;;;7.70;78.70;;;;;;5072159;28;19930;-70
2024/03/13 00:59:46;;;;;;;;;;;7.70;78.90;;;;;;5072066;28;20381;-71
2024/03/13 01:02:12;;;;;;;;;;;7.70;78.90;;;;;;5071789;28;19986;-74
2024/03/13 01:04:38;;;;;;;;;;;7.60;78.80;;;;;;5070966;28;19920;-70
2024/03/13 01:07:08;;;;;;;;;;;7.60;78.90;;;;;;5071950;28;20399;-71
2024/03/13 01:09:34;;;;;;;;;;;7.50;78.80;;;;;;5054566;28;19958;-72
2024/03/13 01:12:00;;;;;;;;;;;7.50;78.60;;;;;;5070248;28;19924;-70
2024/03/13 01:14:27;;;;;;;;;;;7.50;78.70;;;;;;5070473;28;19947;-74
2024/03/13 01:16:55;;;;;;;;;;;7.40;78.60;;;;;;5070747;28;19991;-73
2024/03/13 01:19:21;;;;;;;;;;;7.40;78.50;;;;;;5054025;28;19950;-74
2024/03/13 01:21:51;;;;;;;;;;;7.30;78.40;;;;;;5053447;28;19924;-74
2024/03/13 01:24:18;;;;;;;;;;;7.30;78.40;;;;;;5070752;28;19921;-74
2024/03/13 01:26:45;;;;;;;;;;;7.30;78.40;;;;;;5071961;28;19929;-71
2024/03/13 01:29:12;;;;;;;;;;;7.30;78.60;;;;;;5054099;28;20019;-74
2024/03/13 01:31:38;;;;;;;;;;;7.20;78.50;;;;;;5069881;28;19931;-74
2024/03/13 01:34:04;;;;;;;;;;;7.10;78.20;;;;;;5070662;28;20415;-70
2024/03/13 01:39:17;;;;;;;;;;;7.00;78.60;;;;;;5070742;28;19935;-70
2024/03/13 01:56:30;;;;;;;;;;;7.00;78.00;;;;;;5070737;28;20391;-70
2024/03/13 01:59:20;;;;;;;;;;;7.00;77.90;;;;;;5071330;28;19928;-74
2024/03/13 02:04:31;;;;;;;;;;;6.90;77.80;;;;;;5071421;28;19931;-74
2024/03/13 02:06:56;;;;;;;;;;;6.90;78.40;;;;;;5070358;28;19924;-74
2024/03/13 02:09:24;;;;;;;;;;;6.80;78.40;;;;;;5071400;28;19942;-74
2024/03/13 02:11:50;;;;;;;;;;;6.80;78.60;;;;;;5069604;28;20384;-74
2024/03/13 02:14:16;;;;;;;;;;;6.80;78.90;;;;;;5069885;28;19925;-70
2024/03/13 02:16:42;;;;;;;;;;;6.70;79.10;;;;;;5071318;28;20377;-71
2024/03/13 02:19:08;;;;;;;;;;;6.70;79.00;;;;;;5070098;28;19924;-71
2024/03/13 02:21:35;;;;;;;;;;;6.70;79.30;;;;;;5071127;28;19924;-74
2024/03/13 02:24:01;;;;;;;;;;;6.60;79.10;;;;;;5070044;28;19917;-71
2024/03/13 02:26:27;;;;;;;;;;;6.60;79.00;;;;;;5073824;28;19920;-71
2024/03/13 02:28:52;;;;;;;;;;;6.50;79.20;;;;;;5073980;28;19916;-75
2024/03/13 02:31:19;;;;;;;;;;;6.50;79.20;;;;;;5073318;28;20005;-71
2024/03/13 02:33:45;;;;;;;;;;;6.50;79.20;;;;;;5057198;28;19947;-72
2024/03/13 02:36:11;;;;;;;;;;;6.40;79.20;;;;;;5074829;28;19927;-71
2024/03/13 02:38:37;;;;;;;;;;;6.40;79.30;;;;;;5073792;28;19921;-74
2024/03/13 02:41:03;;;;;;;;;;;6.30;79.20;;;;;;5074595;28;20140;-70
2024/03/13 02:43:30;;;;;;;;;;;6.30;79.30;;;;;;5073753;28;19952;-74
2024/03/13 02:45:56;;;;;;;;;;;6.30;79.30;;;;;;5073848;28;19925;-74
2024/03/13 02:48:22;;;;;;;;;;;6.30;79.30;;;;;;5074791;28;19923;-74
2024/03/13 02:50:48;;;;;;;;;;;6.20;79.30;;;;;;5073066;28;20019;-71
2024/03/13 02:53:14;;;;;;;;;;;6.10;79.50;;;;;;5073471;28;19920;-71
2024/03/13 02:55:43;;;;;;;;;;;6.10;79.90;;;;;;5074988;28;20381;-70
2024/03/13 02:58:10;;;;;;;;;;;6.10;79.50;;;;;;5074768;28;19974;-74
2024/03/13 03:00:36;;;;;;;;;;;6.10;79.50;;;;;;5074380;28;20023;-70
2024/03/13 03:03:02;;;;;;;;;;;6.10;79.30;;;;;;5074565;28;19916;-71
2024/03/13 03:05:28;;;;;;;;;;;6.10;79.50;;;;;;5073213;28;19964;-71
2024/03/13 03:07:54;;;;;;;;;;;6.10;79.50;;;;;;5073364;28;20380;-73
2024/03/13 03:10:20;;;;;;;;;;;6.10;79.30;;;;;;5072584;28;19928;-74
2024/03/13 03:12:46;;;;;;;;;;;6.10;79.30;;;;;;5074407;28;20358;-70
2024/03/13 03:15:12;;;;;;;;;;;6.10;79.20;;;;;;5074465;28;19928;-70
2024/03/13 03:17:38;;;;;;;;;;;6.00;79.30;;;;;;5073021;28;20412;-70
2024/03/13 03:20:06;;;;;;;;;;;6.00;79.30;;;;;;5072563;28;19976;-71
2024/03/13 03:22:32;;;;;;;;;;;6.00;79.30;;;;;;5074184;28;19917;-74
2024/03/13 03:24:58;;;;;;;;;;;6.00;79.50;;;;;;5072844;28;19931;-74
2024/03/13 03:27:25;;;;;;;;;;;6.00;79.70;;;;;;5072855;28;20331;-73
2024/03/13 03:29:51;;;;;;;;;;;5.90;79.70;;;;;;5074189;28;19970;-74
2024/03/13 03:32:19;;;;;;;;;;;5.90;79.50;;;;;;5071848;28;19921;-71
2024/03/13 03:34:45;;;;;;;;;;;5.90;79.30;;;;;;5074246;28;19924;-74
2024/03/13 03:37:11;;;;;;;;;;;6.00;79.30;;;;;;5073586;28;19924;-71
2024/03/13 03:39:38;;;;;;;;;;;5.90;79.30;;;;;;5072659;28;19994;-74
2024/03/13 03:42:04;;;;;;;;;;;5.80;79.50;;;;;;5072294;28;20011;-74
2024/03/13 03:44:30;;;;;;;;;;;5.80;78.90;;;;;;5072599;28;19928;-74
2024/03/13 03:47:15;;;;;;;;;;;5.80;79.50;;;;;;5072528;28;20353;-71
2024/03/13 03:49:41;;;;;;;;;;;5.70;79.50;;;;;;5072483;28;20090;-71
2024/03/13 03:52:07;;;;;;;;;;;5.60;78.80;;;;;;5071752;28;19929;-70
2024/03/13 03:54:34;;;;;;;;;;;5.60;78.80;;;;;;5073652;28;19977;-72
2024/03/13 03:57:00;;;;;;;;;;;5.50;79.40;;;;;;5055623;28;20396;-70
2024/03/13 03:59:26;;;;;;;;;;;5.40;79.40;;;;;;5073277;28;19924;-70
2024/03/13 04:01:52;;;;;;;;;;;5.40;79.50;;;;;;5071716;28;19920;-71
2024/03/13 04:04:18;;;;;;;;;;;5.40;79.40;;;;;;5072177;28;19925;-70
2024/03/13 04:06:45;;;;;;;;;;;5.40;79.30;;;;;;5073536;28;20020;-74
2024/03/13 04:11:55;;;;;;;;;;;5.40;79.20;;;;;;5071389;28;19985;-71
2024/03/13 04:14:21;;;;;;;;;;;5.40;79.00;;;;;;5071815;28;19924;-73
2024/03/13 04:16:47;;;;;;;;;;;5.40;79.00;;;;;;5072047;28;20027;-74
2024/03/13 04:19:14;;;;;;;;;;;5.40;78.80;;;;;;5072904;28;19933;-74
2024/03/13 04:21:40;;;;;;;;;;;5.40;78.70;;;;;;5071249;28;19988;-74
2024/03/13 04:24:07;;;;;;;;;;;5.40;78.60;;;;;;5072884;28;19956;-74
2024/03/13 04:26:52;;;;;;;;;;;5.40;78.50;;;;;;5055189;28;19923;-71
2024/03/13 04:29:18;;;;;;;;;;;5.40;78.00;;;;;;5071444;28;19936;-71
2024/03/13 04:31:45;;;;;;;;;;;5.40;78.20;;;;;;5072227;28;19928;-74
2024/03/13 04:34:10;;;;;;;;;;;5.30;78.40;;;;;;5072656;28;20397;-70
2024/03/13 04:39:22;;;;;;;;;;;5.40;78.40;;;;;;5071862;28;19924;-71
2024/03/13 04:41:49;;;;;;;;;;;5.40;78.00;;;;;;5072437;28;19931;-70
2024/03/13 04:44:35;;;;;;;;;;;5.40;77.90;;;;;;5070990;28;19982;-70
2024/03/13 04:47:01;;;;;;;;;;;5.40;77.60;;;;;;5071315;28;19916;-74
2024/03/13 04:49:27;;;;;;;;;;;5.30;77.60;;;;;;5070487;28;19964;-70
2024/03/13 04:51:53;;;;;;;;;;;5.30;77.90;;;;;;5070723;28;20011;-70
2024/03/13 04:54:21;;;;;;;;;;;5.30;77.90;;;;;;5072464;28;20027;-73
2024/03/13 04:56:47;;;;;;;;;;;5.30;77.90;;;;;;5072471;28;20288;-70
2024/03/13 04:59:13;;;;;;;;;;;5.30;78.00;;;;;;5072059;28;19933;-71
2024/03/13 05:01:39;;;;;;;;;;;5.30;78.20;;;;;;5070587;28;19927;-71
2024/03/13 05:04:05;;;;;;;;;;;5.20;78.10;;;;;;5072163;28;19923;-70
2024/03/13 05:06:31;;;;;;;;;;;5.20;78.00;;;;;;5072047;28;19924;-71
2024/03/13 05:08:56;;;;;;;;;;;5.10;77.80;;;;;;5070880;28;19917;-74
2024/03/13 05:11:22;;;;;;;;;;;5.00;77.70;;;;;;5070109;28;20429;-74
2024/03/13 05:13:48;;;;;;;;;;;4.90;77.80;;;;;;5070828;28;20261;-73
2024/03/13 05:16:15;;;;;;;;;;;4.90;77.90;;;;;;5071900;28;19959;-71
2024/03/13 05:18:42;;;;;;;;;;;4.90;77.80;;;;;;5070639;28;19973;-70
2024/03/13 05:21:08;;;;;;;;;;;4.90;77.60;;;;;;5053493;28;19960;-73
2024/03/13 05:23:34;;;;;;;;;;;4.80;77.20;;;;;;5071857;28;19921;-73
2024/03/13 05:26:00;;;;;;;;;;;4.80;77.40;;;;;;5072345;28;20011;-74
2024/03/13 05:28:28;;;;;;;;;;;4.80;77.50;;;;;;5072089;28;19921;-73
2024/03/13 05:30:54;;;;;;;;;;;4.80;78.50;;;;;;5071603;28;20419;-70
2024/03/13 05:33:20;;;;;;;;;;;4.80;77.70;;;;;;5071665;28;19999;-73
2024/03/13 05:35:46;;;;;;;;;;;4.80;77.90;;;;;;5070620;28;19931;-73
2024/03/13 05:38:11;;;;;;;;;;;4.90;77.70;;;;;;5070217;28;20019;-73
2024/03/13 05:40:37;;;;;;;;;;;4.90;77.20;;;;;;5071215;28;19925;-71
2024/03/13 05:43:03;;;;;;;;;;;5.00;76.60;;;;;;5071550;28;19920;-71
2024/03/13 05:45:29;;;;;;;;;;;5.00;76.30;;;;;;5071874;28;19920;-71
2024/03/13 05:47:55;;;;;;;;;;;5.10;76.20;;;;;;5070405;28;19920;-74
2024/03/13 05:50:21;;;;;;;;;;;5.10;76.00;;;;;;5069825;28;19920;-70
2024/03/13 05:52:47;;;;;;;;;;;5.20;75.80;;;;;;5070113;28;20011;-70
2024/03/13 05:55:14;;;;;;;;;;;5.30;75.70;;;;;;5071360;28;19950;-70
2024/03/13 05:57:40;;;;;;;;;;;5.30;76.20;;;;;;5070145;28;20387;-70
2024/03/13 06:02:52;;;;;;;;;;;5.40;76.50;;;;;;5074534;28;19963;-74
2024/03/13 06:05:18;;;;;;;;;;;5.50;78.10;;;;;;5074167;28;20048;-74
2024/03/13 06:07:43;;;;;;;;;;;5.60;79.20;;;;;;5075610;28;20321;-74
2024/03/13 06:10:10;;;;;;;;;;;5.60;79.40;;;;;;5073655;28;19925;-70
2024/03/13 06:12:36;;;;;;;;;;;5.70;79.40;;;;;;5074190;28;19917;-71
2024/03/13 06:15:06;;;;;;;;;;;5.80;79.70;;;;;;5057554;28;19954;-74
2024/03/13 06:17:45;;;;;;;;;;;5.90;79.00;;;;;;5074503;28;19924;-73
2024/03/13 06:20:15;;;;;;;;;;;6.00;79.10;;;;;;5073551;28;19939;-71
2024/03/13 06:22:41;;;;;;;;;;;6.10;79.10;;;;;;5073939;28;19924;-73
2024/03/13 06:25:08;;;;;;;;;;;6.20;78.50;;;;;;5075368;28;19924;-70
2024/03/13 06:27:35;;;;;;;;;;;6.40;78.50;;;;;;5075269;28;20361;-71
2024/03/13 06:30:01;;;;;;;;;;;6.50;78.30;;;;;;5074057;28;19955;-74
2024/03/13 06:32:31;;;;;;;;;;;6.50;78.10;;;;;;5056403;28;19938;-70
2024/03/13 06:35:17;;;;;;;;;;;6.50;78.50;;;;;;5073932;28;19932;-74
2024/03/13 06:37:43;;;;;;;;;;;6.50;78.90;;;;;;5057241;28;19920;-70
2024/03/13 06:40:10;;;;;;;;;;;6.70;79.30;;;;;;5074366;28;19927;-74
2024/03/13 06:42:36;;;;;;;;;;;6.70;78.90;;;;;;5075015;28;19916;-71
2024/03/13 06:45:02;;;;;;;;;;;6.80;79.00;;;;;;5073675;28;19974;-70
2024/03/13 06:47:29;;;;;;;;;;;6.80;79.10;;;;;;5074647;28;19925;-73
2024/03/13 06:49:55;;;;;;;;;;;7.00;79.40;;;;;;5074809;28;19921;-70
2024/03/13 06:52:21;;;;;;;;;;;7.00;78.90;;;;;;5072961;28;19947;-74
2024/03/13 06:54:47;;;;;;;;;;;7.00;79.10;;;;;;5074769;28;20019;-74
2024/03/13 06:57:12;;;;;;;;;;;7.10;79.30;;;;;;5074505;28;20011;-74
2024/03/13 06:59:39;;;;;;;;;;;7.10;79.30;;;;;;5073259;28;20019;-74
2024/03/13 07:02:06;;;;;;;;;;;7.10;79.20;;;;;;5072782;28;19925;-70
2024/03/13 07:04:32;;;;;;;;;;;7.20;78.60;;;;;;5073255;28;19925;-71
2024/03/13 07:06:58;;;;;;;;;;;7.30;78.40;;;;;;5073286;28;19925;-74
2024/03/13 07:09:25;;;;;;;;;;;7.40;78.50;;;;;;5074395;28;19971;-74
2024/03/13 07:11:51;;;;;;;;;;;7.50;78.40;;;;;;5073398;28;20309;-74
2024/03/13 07:14:17;;;;;;;;;;;7.60;78.10;;;;;;5072661;28;20011;-71
2024/03/13 07:16:44;;;;;;;;;;;7.80;77.50;;;;;;5073053;28;19917;-74
2024/03/13 07:19:11;;;;;;;;;;;7.80;76.80;;;;;;5072818;28;19916;-74
2024/03/13 07:21:37;;;;;;;;;;;7.90;77.10;;;;;;5073930;28;19979;-71
2024/03/13 07:24:03;;;;;;;;;;;8.10;76.70;;;;;;5072855;28;19931;-74
2024/03/13 07:26:31;;;;;;;;;;;8.30;76.20;;;;;;5072826;28;19917;-71
2024/03/13 07:28:58;;;;;;;;;;;8.40;76.00;;;;;;5072623;28;20003;-71
2024/03/13 07:31:24;;;;;;;;;;;8.60;76.00;;;;;;5055386;28;20396;-70
2024/03/13 07:33:56;;;;;;;;;;;8.80;75.50;;;;;;5072620;28;20046;-74
2024/03/13 07:36:22;;;;;;;;;;;9.00;74.50;;;;;;5072582;28;20014;-74
2024/03/13 07:38:52;;;;;;;;;;;9.20;75.10;;;;;;5074021;28;20015;-71
2024/03/13 07:41:18;;;;;;;;;;;9.30;74.30;;;;;;5072204;28;19925;-74
2024/03/13 07:43:44;;;;;;;;;;;9.50;74.30;;;;;;5072563;28;20438;-74
2024/03/13 07:46:11;;;;;;;;;;;9.70;74.20;;;;;;5072612;28;20440;-74
2024/03/13 07:48:48;;;;;;;;;;;9.80;73.50;;;;;;5072729;28;19924;-74
2024/03/13 07:51:13;;;;;;;;;;;10.00;73.20;;;;;;5071875;28;19929;-72
2024/03/13 07:53:39;;;;;;;;;;;10.20;73.40;;;;;;5073543;28;20326;-71
2024/03/13 07:56:06;;;;;;;;;;;10.20;72.60;;;;;;5072543;28;19951;-74
2024/03/13 07:58:32;;;;;;;;;;;10.30;72.20;;;;;;5072348;28;19924;-74
2024/03/13 08:01:01;;;;;;;;;;;10.50;71.50;;;;;;5071688;28;19929;-70
2024/03/13 08:03:27;;;;;;;;;;;10.80;71.10;;;;;;5073314;28;20190;-74
2024/03/13 08:05:55;;;;;;;;;;;11.10;70.70;;;;;;5073256;28;19927;-74
2024/03/13 08:08:21;;;;;;;;;;;11.50;69.30;;;;;;5072115;28;19921;-70
2024/03/13 08:10:46;;;;;;;;;;;11.70;70.00;;;;;;5072912;28;20027;-74
2024/03/13 08:13:13;;;;;;;;;;;12.40;66.80;;;;;;5072975;28;20425;-74
2024/03/13 08:15:39;;;;;;;;;;;12.90;67.70;;;;;;5071828;28;19931;-74
2024/03/13 08:18:09;;;;;;;;;;;13.20;65.50;;;;;;5073141;28;20396;-74
2024/03/13 08:20:35;;;;;;;;;;;13.20;65.00;;;;;;5071203;28;20327;-70
2024/03/13 08:23:03;;;;;;;;;;;13.50;64.40;;;;;;5070852;28;19920;-70
2024/03/13 08:25:29;;;;;;;;;;;14.00;64.20;;;;;;5073169;28;19920;-74
2024/03/13 08:27:56;;;;;;;;;;;14.50;61.80;;;;;;5071704;28;20039;-74
2024/03/13 08:30:22;;;;;;;;;;;15.00;60.30;;;;;;5071055;28;19924;-71
2024/03/13 08:32:51;;;;;;;;;;;15.70;60.40;;;;;;5071324;28;19939;-71
2024/03/13 08:35:17;;;;;;;;;;;16.50;57.30;;;;;;5071460;28;19931;-71
2024/03/13 08:37:43;;;;;;;;;;;17.20;54.40;;;;;;5072724;28;19931;-71
2024/03/13 08:40:11;;;;;;;;;;;17.70;52.90;;;;;;5072148;28;19924;-71
2024/03/13 08:42:39;;;;;;;;;;;18.40;44.90;;;;;;5071402;28;19947;-71
2024/03/13 08:45:08;;;;;;;;;;;18.90;45.70;;;;;;5072591;28;19924;-74
2024/03/13 08:47:35;;;;;;;;;;;19.70;44.60;;;;;;5072556;28;20003;-75
2024/03/13 08:50:03;;;;;;;;;;;20.70;44.20;;;;;;5072624;28;20043;-75
2024/03/13 08:52:28;;;;;;;;;;;21.40;40.50;;;;;;5074312;28;19924;-71
2024/03/13 08:54:54;;;;;;;;;;;21.90;41.10;;;;;;5074371;28;20033;-74
2024/03/13 08:57:20;;;;;;;;;;;22.90;38.40;;;;;;5092522;28;20027;-69
2024/03/13 09:02:32;;;;;;;;;;;23.00;36.70;;;;;;5076807;28;19935;-73
2024/03/13 09:04:58;;;;;;;;;;;22.90;35.00;;;;;;5092373;28;20144;-71
2024/03/13 09:07:26;;;;;;;;;;;23.50;34.80;;;;;;5092354;28;19947;-75
2024/03/13 09:09:51;;;;;;;;;;;23.70;34.60;;;;;;5074710;28;20346;-74
2024/03/13 09:12:18;;;;;;;;;;;23.70;33.80;;;;;;5091922;28;19963;-69
2024/03/13 09:14:45;;;;;;;;;;;23.50;33.20;;;;;;5073225;28;21310;-71
2024/03/13 09:17:12;;;;;;;;;;;24.70;32.30;;;;;;5092221;28;19916;-74
2024/03/13 09:19:39;;;;;;;;;;;25.40;30.10;;;;;;5074045;28;19928;-74
2024/03/13 09:22:07;;;;;;;;;;;26.20;27.90;;;;;;5091692;28;19975;-72
2024/03/13 09:24:34;;;;;;;;;;;26.90;26.30;;;;;;5074230;28;19931;-75
2024/03/13 09:27:01;;;;;;;;;;;27.40;24.60;;;;;;5057795;28;19924;-72
2024/03/13 09:29:27;;;;;;;;;;;28.10;25.80;;;;;;5073793;28;20631;-74
2024/03/13 09:31:53;;;;;;;;;;;28.80;24.10;;;;;;5073351;28;20133;-73
2024/03/13 09:34:19;;;;;;;;;;;29.50;22.30;;;;;;5091732;28;20360;-74
2024/03/13 09:36:45;;;;;;;;;;;30.20;22.60;;;;;;5073901;28;19987;-74
2024/03/13 09:39:11;;;;;;;;;;;30.80;21.50;;;;;;5091736;28;20440;-74
2024/03/13 09:41:37;;;;;;;;;;;31.50;20.80;;;;;;5091234;28;19927;-71
2024/03/13 09:44:04;;;;;;;;;;;31.90;20.00;;;;;;5073839;28;20418;-71
2024/03/13 09:46:31;;;;;;;;;;;32.40;18.30;;;;;;5073805;28;19916;-72
2024/03/13 09:48:59;;;;;;;;;;;32.60;18.50;;;;;;5073885;28;19920;-72
2024/03/13 09:51:25;;;;;;;;;;;33.00;17.70;;;;;;5073215;28;19924;-74
2024/03/13 09:53:53;;;;;;;;;;;33.20;17.60;;;;;;5091725;28;19948;-74
2024/03/13 09:56:19;;;;;;;;;;;33.30;17.90;;;;;;5073878;28;20296;-70
2024/03/13 09:58:49;;;;;;;;;;;33.30;17.00;;;;;;5057111;28;19920;-71
2024/03/13 10:01:20;;;;;;;;;;;32.50;17.70;;;;;;5062942;28;19935;-72
2024/03/13 10:03:53;;;;;;;;;;;32.90;17.20;;;;;;5071469;28;19922;-72
2024/03/13 10:06:20;;;;;;;;;;;33.90;15.60;;;;;;5054133;28;20313;-72
2024/03/13 10:08:47;;;;;;;;;;;34.30;14.90;;;;;;5071578;28;20019;-72
2024/03/13 10:11:14;;;;;;;;;;;34.20;15.20;;;;;;5062579;28;20281;-72
2024/03/13 10:13:43;;;;;;;;;;;34.10;13.60;;;;;;5073759;28;19916;-72
2024/03/13 10:16:10;;;;;;;;;;;34.00;15.00;;;;;;5073927;28;19973;-74
2024/03/13 10:18:41;;;;;;;;;;;33.70;13.40;;;;;;5091661;28;20357;-72
2024/03/13 10:21:14;;;;;;;;;;;33.10;15.50;;;;;;5073198;28;20404;-74
2024/03/13 10:26:26;;;;;;;;;;;32.80;15.30;;;;;;5076463;28;19934;-74
2024/03/13 10:28:52;;;;;;;;;;;32.90;14.60;;;;;;5073463;28;19920;-72
2024/03/13 10:31:18;;;;;;;;;;;32.80;14.00;;;;;;5072727;28;19931;-71
2024/03/13 10:33:44;;;;;;;;;;;32.70;13.80;;;;;;5073158;28;19917;-74
2024/03/13 10:38:56;;;;;;;;;;;33.10;14.60;;;;;;5091293;28;19930;-72
2024/03/13 10:41:22;;;;;;;;;;;33.90;14.20;;;;;;5072601;28;19924;-75
2024/03/13 10:43:48;;;;;;;;;;;35.00;14.30;;;;;;5073193;28;20382;-75
2024/03/13 10:46:14;;;;;;;;;;;35.40;12.90;;;;;;5073837;28;20428;-72
2024/03/13 10:48:41;;;;;;;;;;;35.90;12.30;;;;;;5076988;28;19955;-72
2024/03/13 10:51:13;;;;;;;;;;;36.70;11.90;;;;;;5094653;28;20400;-75
2024/03/13 10:56:24;;;;;;;;;;;37.00;11.10;;;;;;5094981;28;19993;-74
2024/03/13 10:58:49;;;;;;;;;;;36.50;10.50;;;;;;5076868;28;19916;-74
2024/03/13 11:01:17;;;;;;;;;;;35.60;10.40;;;;;;5076122;28;20007;-72
2024/03/13 11:03:44;;;;;;;;;;;34.60;11.70;;;;;;5076916;28;19923;-75
2024/03/13 11:06:15;;;;;;;;;;;34.70;11.80;;;;;;5076610;28;19928;-71
2024/03/13 11:08:41;;;;;;;;;;;34.80;12.00;;;;;;5077219;28;19920;-74
2024/03/13 11:11:12;;;;;;;;;;;35.40;12.60;;;;;;5050254;28;20509;-72
2024/03/13 11:13:59;;;;;;;;;;;35.70;11.40;;;;;;5074271;28;20373;-74
2024/03/13 11:16:26;;;;;;;;;;;33.80;12.10;;;;;;5056537;28;20198;-70
2024/03/13 11:18:55;;;;;;;;;;;32.20;13.80;;;;;;5056580;28;19977;-74
2024/03/13 11:21:43;;;;;;;;;;;31.10;13.00;;;;;;5073870;28;19970;-74
2024/03/13 11:24:11;;;;;;;;;;;29.30;15.30;;;;;;5056324;28;19970;-74
2024/03/13 11:26:38;;;;;;;;;;;28.50;15.00;;;;;;5056467;28;20278;-74
2024/03/13 11:29:24;;;;;;;;;;;27.90;15.20;;;;;;5074144;28;19939;-74
2024/03/13 11:31:52;;;;;;;;;;;27.30;16.20;;;;;;5055594;28;19970;-71
2024/03/13 11:34:20;;;;;;;;;;;27.70;17.00;;;;;;5056083;28;19920;-70
2024/03/13 11:36:46;;;;;;;;;;;29.20;16.00;;;;;;5039279;28;20297;-75
2024/03/13 11:39:15;;;;;;;;;;;28.10;16.20;;;;;;5056062;28;19917;-74
2024/03/13 11:44:30;;;;;;;;;;;27.10;17.50;;;;;;5073741;28;20400;-74
2024/03/13 11:47:00;;;;;;;;;;;28.30;17.00;;;;;;5073570;28;20327;-74
2024/03/13 11:49:26;;;;;;;;;;;30.20;15.90;;;;;;5039089;28;19925;-70
2024/03/13 11:52:10;;;;;;;;;;;29.60;16.50;;;;;;5055082;28;19960;-74
2024/03/13 11:54:56;;;;;;;;;;;30.00;17.80;;;;;;5073740;28;20010;-71
2024/03/13 11:57:24;;;;;;;;;;;32.80;14.50;;;;;;5072872;28;20017;-74
2024/03/13 12:00:20;;;;;;;;;;;34.10;14.20;;;;;;5072937;28;19920;-74
2024/03/13 12:02:46;;;;;;;;;;;35.10;13.50;;;;;;5055554;28;19964;-74
2024/03/13 12:05:29;;;;;;;;;;;35.80;12.00;;;;;;5073227;28;20388;-74
2024/03/13 12:07:55;;;;;;;;;;;34.50;13.20;;;;;;5055292;28;19926;-71
2024/03/13 12:10:21;;;;;;;;;;;36.00;13.10;;;;;;5054874;28;20343;-74
2024/03/13 12:12:47;;;;;;;;;;;37.80;10.10;;;;;;5038402;28;20266;-71
2024/03/13 12:15:17;;;;;;;;;;;37.10;11.10;;;;;;5055213;28;19935;-71
2024/03/13 12:17:44;;;;;;;;;;;38.00;10.90;;;;;;5073107;28;19917;-70
2024/03/13 12:20:22;;;;;;;;;;;39.40;10.60;;;;;;5054745;28;20391;-71
2024/03/13 12:22:49;;;;;;;;;;;38.20;10.40;;;;;;5056798;28;19928;-74
2024/03/13 12:25:16;;;;;;;;;;;36.20;11.60;;;;;;5055159;28;19951;-74
2024/03/13 12:28:00;;;;;;;;;;;36.40;12.10;;;;;;5055206;28;19967;-71
2024/03/13 12:30:29;;;;;;;;;;;37.20;11.30;;;;;;5054303;28;20011;-71
2024/03/13 12:33:00;;;;;;;;;;;37.80;11.90;;;;;;5054703;28;20011;-74
2024/03/13 12:35:26;;;;;;;;;;;38.50;10.60;;;;;;5073039;28;20023;-74
2024/03/13 12:37:57;;;;;;;;;;;40.20;10.20;;;;;;5073112;28;19924;-74
2024/03/13 12:40:23;;;;;;;;;;;41.70;9.00;;;;;;5054317;28;20365;-72
2024/03/13 12:42:50;;;;;;;;;;;43.10;8.20;;;;;;5038092;28;19923;-73
2024/03/13 12:45:16;;;;;;;;;;;44.10;8.00;;;;;;5037879;28;19928;-71
2024/03/13 12:47:42;;;;;;;;;;;44.70;7.10;;;;;;5054629;28;19970;-74
2024/03/13 12:50:26;;;;;;;;;;;45.50;6.60;;;;;;5053958;28;19942;-74
2024/03/13 12:52:52;;;;;;;;;;;44.00;7.30;;;;;;5054489;28;19922;-74
2024/03/13 12:55:22;;;;;;;;;;;41.30;9.00;;;;;;5072451;28;19920;-71
2024/03/13 12:57:48;;;;;;;;;;;42.70;8.40;;;;;;5072361;28;19926;-71
2024/03/13 13:00:19;;;;;;;;;;;44.10;7.50;;;;;;5053758;28;19920;-71
2024/03/13 13:02:46;;;;;;;;;;;44.10;7.40;;;;;;5054939;28;19982;-71
2024/03/13 13:05:12;;;;;;;;;;;42.40;7.60;;;;;;5050782;28;19925;-74
2024/03/13 13:07:58;;;;;;;;;;;41.60;6.70;;;;;;5051141;28;19960;-74
2024/03/13 13:10:25;;;;;;;;;;;41.00;8.30;;;;;;5049899;28;19932;-74
2024/03/13 13:12:52;;;;;;;;;;;41.60;7.10;;;;;;5050723;28;19916;-74
2024/03/13 13:15:18;;;;;;;;;;;39.70;8.20;;;;;;5052213;28;19921;-71
2024/03/13 13:17:44;;;;;;;;;;;37.50;9.40;;;;;;5050794;28;19920;-71
2024/03/13 13:22:55;;;;;;;;;;;39.60;8.90;;;;;;5051020;28;19965;-71
2024/03/13 13:25:22;;;;;;;;;;;40.20;8.20;;;;;;5052241;28;20027;-74
2024/03/13 13:27:50;;;;;;;;;;;41.70;7.90;;;;;;5050665;28;19924;-71
2024/03/13 13:30:20;;;;;;;;;;;43.40;7.20;;;;;;5050051;28;19929;-71
2024/03/13 13:32:46;;;;;;;;;;;44.70;6.80;;;;;;5050572;28;19955;-74
2024/03/13 13:35:14;;;;;;;;;;;44.70;5.70;;;;;;5050322;28;19924;-74
2024/03/13 13:37:41;;;;;;;;;;;43.00;6.70;;;;;;5050536;28;19917;-74
2024/03/13 13:42:54;;;;;;;;;;;39.30;7.90;;;;;;5051581;28;20297;-74
2024/03/13 13:45:22;;;;;;;;;;;41.20;7.30;;;;;;5050493;28;19925;-71
2024/03/13 13:47:51;;;;;;;;;;;42.70;6.40;;;;;;5050124;28;19916;-74
2024/03/13 13:50:18;;;;;;;;;;;44.00;6.70;;;;;;5051172;28;20318;-71
2024/03/13 13:53:03;;;;;;;;;;;45.60;5.40;;;;;;5050276;28;19924;-71
2024/03/13 13:55:29;;;;;;;;;;;43.30;5.90;;;;;;5051702;28;19963;-72
2024/03/13 13:57:55;;;;;;;;;;;41.10;7.50;;;;;;5051518;28;19917;-73
2024/03/13 14:00:21;;;;;;;;;;;41.50;7.60;;;;;;5033121;28;19931;-71
2024/03/13 14:02:47;;;;;;;;;;;39.70;8.20;;;;;;5051532;28;19916;-71
2024/03/13 14:05:13;;;;;;;;;;;40.20;8.50;;;;;;5049937;28;20019;-71
2024/03/13 14:07:40;;;;;;;;;;;41.70;6.90;;;;;;5033567;28;19917;-72
2024/03/13 14:10:10;;;;;;;;;;;43.40;6.90;;;;;;5049576;28;20368;-74
2024/03/13 14:12:37;;;;;;;;;;;44.10;6.60;;;;;;5050182;28;20015;-71
2024/03/13 14:15:04;;;;;;;;;;;41.50;7.20;;;;;;5050107;28;19924;-74
2024/03/13 14:17:34;;;;;;;;;;;40.30;8.00;;;;;;5033418;28;19917;-74
2024/03/13 14:20:01;;;;;;;;;;;41.70;7.10;;;;;;5050054;28;20332;-71
2024/03/13 14:22:27;;;;;;;;;;;43.40;7.00;;;;;;5053687;28;19920;-74
2024/03/13 14:24:54;;;;;;;;;;;44.50;5.60;;;;;;5053909;28;19925;-71
2024/03/13 14:27:20;;;;;;;;;;;45.20;5.80;;;;;;5054023;28;20401;-74
2024/03/13 14:29:47;;;;;;;;;;;45.40;5.00;;;;;;5055290;28;19925;-75
2024/03/13 14:32:13;;;;;;;;;;;45.50;5.30;;;;;;5053570;28;19928;-75
2024/03/13 14:34:39;;;;;;;;;;;45.70;5.00;;;;;;5055084;28;19929;-71
2024/03/13 14:37:25;;;;;;;;;;;45.50;4.70;;;;;;5053666;28;19923;-75
2024/03/13 14:40:05;;;;;;;;;;;41.60;5.50;;;;;;5043012;28;20034;-74
2024/03/13 14:45:15;;;;;;;;;;;36.90;8.40;;;;;;5034950;28;19940;-71
2024/03/13 14:47:41;;;;;;;;;;;36.10;9.20;;;;;;5017265;28;19917;-74
2024/03/13 14:50:08;;;;;;;;;;;35.10;10.40;;;;;;5034643;28;19971;-71
2024/03/13 14:52:34;;;;;;;;;;;34.30;10.20;;;;;;5033703;28;19980;-71
2024/03/13 14:55:00;;;;;;;;;;;36.60;9.60;;;;;;5034903;28;20325;-74
2024/03/13 14:57:29;;;;;;;;;;;38.80;8.50;;;;;;5034303;28;19943;-72
2024/03/13 14:59:55;;;;;;;;;;;40.30;8.20;;;;;;5034749;28;19928;-71
2024/03/13 15:02:21;;;;;;;;;;;40.90;7.00;;;;;;5053257;28;20012;-74
2024/03/13 15:04:47;;;;;;;;;;;41.60;7.20;;;;;;5050639;28;20015;-74
2024/03/13 15:07:14;;;;;;;;;;;42.00;7.00;;;;;;5076435;28;20285;-71
2024/03/13 15:09:40;;;;;;;;;;;41.90;6.40;;;;;;5094600;28;20478;-74
2024/03/13 15:12:10;;;;;;;;;;;41.70;6.50;;;;;;5076992;28;19920;-71
2024/03/13 15:14:42;;;;;;;;;;;41.00;6.60;;;;;;5043626;28;19933;-71
2024/03/13 15:17:12;;;;;;;;;;;41.00;7.70;;;;;;5053316;28;20293;-71
2024/03/13 15:19:41;;;;;;;;;;;40.90;7.00;;;;;;5037053;28;19979;-75
2024/03/13 15:22:08;;;;;;;;;;;38.90;7.70;;;;;;5053668;28;19960;-71
2024/03/13 15:24:36;;;;;;;;;;;36.30;9.30;;;;;;5052902;28;19925;-71